Time;durP1;ratioP1;P1;durP2;ratioP2;P2;SDS_P1;SDS_P2;PMS_P1;PMS_P2;Temp;Humidity;BMP_temperature;BMP_pressure;BME280_temperature;BME280_humidity;BME280_pressure;Samples;Min_cycle;Max_cycle;Signal;HPM_P1;HPM_P2
2024/04/13 00:01:33;;;;;;;14.43;3.45;;;;;;;12.96;100.00;102582.56;5344558;26;20729;-58
2024/04/13 00:03:58;;;;;;;13.40;2.55;;;;;;;12.99;100.00;102589.69;5352366;26;20625;-58
2024/04/13 00:06:23;;;;;;;13.68;1.98;;;;;;;12.99;100.00;102595.06;5350487;26;20251;-58
2024/04/13 00:08:50;;;;;;;13.27;2.50;;;;;;;12.87;100.00;102595.38;5334134;26;20239;-58
2024/04/13 00:11:15;;;;;;;10.52;2.55;;;;;;;13.06;100.00;102582.31;5353692;26;20239;-58
2024/04/13 00:13:40;;;;;;;11.05;2.38;;;;;;;12.91;100.00;102600.63;5355260;26;20239;-57
2024/04/13 00:16:06;;;;;;;15.50;2.55;;;;;;;12.88;100.00;102602.50;5355040;26;20281;-58
2024/04/13 00:18:34;;;;;;;16.40;3.00;;;;;;;12.71;100.00;102594.81;5352954;26;20685;-56
2024/04/13 00:21:00;;;;;;;16.88;2.83;;;;;;;12.73;100.00;102595.69;5350340;26;20841;-57
2024/04/13 00:23:25;;;;;;;12.95;2.65;;;;;;;12.84;100.00;102602.56;5349341;26;20243;-58
2024/04/13 00:25:53;;;;;;;15.93;2.45;;;;;;;12.82;100.00;102593.66;5348921;26;20251;-58
2024/04/13 00:28:18;;;;;;;15.35;2.88;;;;;;;13.10;100.00;102592.09;5348570;26;20278;-58
2024/04/13 00:30:44;;;;;;;12.35;2.88;;;;;;;13.01;100.00;102595.91;5348589;26;20235;-58
2024/04/13 00:33:10;;;;;;;16.85;3.75;;;;;;;12.96;100.00;102592.44;5349971;26;20286;-57
2024/04/13 00:35:35;;;;;;;12.57;2.67;;;;;;;12.78;100.00;102578.50;5352065;26;20304;-58
2024/04/13 00:38:01;;;;;;;11.18;2.70;;;;;;;12.55;100.00;102588.94;5341861;26;20345;-57
2024/04/13 00:40:27;;;;;;;15.52;3.85;;;;;;;12.81;100.00;102591.88;5339484;26;20243;-57
2024/04/13 00:42:52;;;;;;;14.38;3.85;;;;;;;12.72;100.00;102586.72;5328616;26;20227;-58
2024/04/13 00:45:17;;;;;;;13.95;2.78;;;;;;;12.49;100.00;102580.06;5351850;26;20285;-58
2024/04/13 00:47:43;;;;;;;15.73;2.90;;;;;;;12.78;100.00;102581.19;5351898;26;20239;-58
2024/04/13 00:50:11;;;;;;;20.58;3.30;;;;;;;12.73;100.00;102580.44;5351731;26;20712;-57
2024/04/13 00:52:45;;;;;;;12.85;3.67;;;;;;;12.39;100.00;102591.97;5350964;26;20286;-57
2024/04/13 00:55:11;;;;;;;20.13;3.03;;;;;;;12.53;100.00;102586.28;5351585;26;20239;-57
2024/04/13 00:57:36;;;;;;;17.27;3.03;;;;;;;12.59;100.00;102588.84;5354343;26;20575;-57
2024/04/13 01:00:05;;;;;;;18.73;3.45;;;;;;;12.68;100.00;102587.75;5352751;26;20247;-58
2024/04/13 01:02:30;;;;;;;11.68;3.55;;;;;;;12.71;100.00;102587.66;5331124;26;20239;-59
2024/04/13 01:04:57;;;;;;;15.25;2.97;;;;;;;12.56;100.00;102588.91;5346319;26;20595;-58
2024/04/13 01:07:24;;;;;;;18.33;4.03;;;;;;;12.39;100.00;102585.69;5352259;26;20234;-58
2024/04/13 01:09:49;;;;;;;13.07;3.00;;;;;;;12.47;100.00;102575.69;5350261;26;20254;-57
2024/04/13 01:12:15;;;;;;;20.52;3.60;;;;;;;12.82;100.00;102569.47;5350269;26;20227;-58
2024/04/13 01:14:41;;;;;;;12.48;2.65;;;;;;;12.87;100.00;102569.34;5351606;26;20281;-57
2024/04/13 01:17:06;;;;;;;11.07;2.83;;;;;;;12.82;100.00;102572.16;5350226;26;20247;-57
2024/04/13 01:19:32;;;;;;;12.55;2.20;;;;;;;12.71;100.00;102568.84;5350768;26;20286;-58
2024/04/13 01:21:59;;;;;;;14.57;2.78;;;;;;;12.74;100.00;102559.78;5350345;26;20239;-58
2024/04/13 01:24:24;;;;;;;14.50;3.17;;;;;;;12.94;100.00;102559.31;5350711;26;20847;-58
2024/04/13 01:26:50;;;;;;;14.60;3.65;;;;;;;12.89;100.00;102556.72;5350041;26;20240;-58
2024/04/13 01:29:16;;;;;;;18.13;2.88;;;;;;;12.91;100.00;102562.97;5320114;26;20239;-57
2024/04/13 01:31:42;;;;;;;13.30;3.22;;;;;;;12.76;100.00;102557.97;5350561;26;20239;-58
2024/04/13 01:34:08;;;;;;;16.13;4.35;;;;;;;12.55;100.00;102556.69;5331807;26;20579;-58
2024/04/13 01:36:39;;;;;;;21.98;4.45;;;;;;;12.54;100.00;102557.59;5346816;26;20574;-57
2024/04/13 01:39:08;;;;;;;17.85;3.10;;;;;;;12.60;100.00;102549.38;5350690;26;20282;-57
2024/04/13 01:41:47;;;;;;;21.85;4.05;;;;;;;12.65;100.00;102547.47;5350605;26;20231;-57
2024/04/13 01:44:12;;;;;;;21.60;3.35;;;;;;;12.55;100.00;102551.31;5344172;26;20244;-57
2024/04/13 01:46:38;;;;;;;11.98;2.67;;;;;;;12.65;100.00;102567.19;5350023;26;20235;-57
2024/04/13 01:49:04;;;;;;;17.70;2.88;;;;;;;12.61;100.00;102575.34;5350638;26;20239;-58
2024/04/13 01:51:31;;;;;;;10.65;2.67;;;;;;;12.68;100.00;102576.97;5350511;26;20291;-58
2024/04/13 01:53:56;;;;;;;17.27;4.20;;;;;;;12.62;100.00;102587.88;5350390;26;20239;-58
2024/04/13 01:56:22;;;;;;;16.83;3.20;;;;;;;12.61;100.00;102570.84;5349946;26;20356;-58
2024/04/13 01:58:48;;;;;;;20.67;3.90;;;;;;;12.61;100.00;102583.41;5350445;26;20669;-58
2024/04/13 02:01:13;;;;;;;19.02;3.13;;;;;;;12.59;100.00;102588.84;5329537;26;20247;-57
2024/04/13 02:03:38;;;;;;;15.85;3.08;;;;;;;12.62;100.00;102572.63;5348417;26;20713;-57
2024/04/13 02:06:04;;;;;;;12.82;3.50;;;;;;;12.70;100.00;102577.81;5350197;26;20336;-57
2024/04/13 02:08:32;;;;;;;12.32;3.10;;;;;;;12.66;100.00;102581.50;5349902;26;20243;-58
2024/04/13 02:10:58;;;;;;;11.50;2.78;;;;;;;12.56;100.00;102586.22;5350442;26;20239;-57
2024/04/13 02:13:23;;;;;;;19.48;3.30;;;;;;;12.58;100.00;102588.88;5350384;26;20254;-58
2024/04/13 02:15:50;;;;;;;14.48;3.10;;;;;;;12.79;100.00;102584.78;5350482;26;20720;-56
2024/04/13 02:18:15;;;;;;;12.73;3.15;;;;;;;12.69;100.00;102589.50;5350045;26;20378;-58
2024/04/13 02:20:40;;;;;;;12.60;3.35;;;;;;;12.77;100.00;102584.84;5350619;26;20243;-58
2024/04/13 02:23:06;;;;;;;13.55;3.33;;;;;;;12.80;100.00;102586.53;5350280;26;20295;-57
2024/04/13 02:25:32;;;;;;;21.40;4.15;;;;;;;12.67;100.00;102588.66;5350169;26;20243;-58
2024/04/13 02:27:58;;;;;;;15.23;3.95;;;;;;;12.82;100.00;102590.09;5350438;26;20285;-57
2024/04/13 02:30:24;;;;;;;14.68;3.20;;;;;;;12.66;100.00;102600.31;5350246;26;20235;-58
2024/04/13 02:32:49;;;;;;;11.43;3.25;;;;;;;12.76;100.00;102591.13;5350447;26;20243;-57
2024/04/13 02:35:14;;;;;;;16.60;3.42;;;;;;;12.69;100.00;102588.63;5350265;26;20235;-57
2024/04/13 02:37:40;;;;;;;20.65;4.38;;;;;;;12.69;100.00;102585.94;5350249;26;20239;-58
2024/04/13 02:40:07;;;;;;;17.20;3.75;;;;;;;12.74;100.00;102589.38;5350124;26;20235;-58
2024/04/13 02:42:39;;;;;;;15.75;3.25;;;;;;;12.52;100.00;102591.69;5350132;26;20591;-57
2024/04/13 02:45:05;;;;;;;12.95;2.85;;;;;;;12.74;100.00;102589.38;5350194;26;20235;-57
2024/04/13 02:47:30;;;;;;;11.40;3.38;;;;;;;12.69;100.00;102584.09;5348989;26;20235;-57
2024/04/13 02:49:56;;;;;;;10.32;2.95;;;;;;;12.71;100.00;102582.28;5349670;26;20285;-57
2024/04/13 02:52:21;;;;;;;10.23;2.72;;;;;;;12.55;100.00;102587.13;5326785;26;20243;-58
2024/04/13 02:54:46;;;;;;;12.00;3.42;;;;;;;12.70;100.00;102585.00;5348991;26;20321;-58
2024/04/13 02:57:12;;;;;;;18.30;3.85;;;;;;;12.65;100.00;102585.13;5347370;26;20697;-58
2024/04/13 02:59:38;;;;;;;15.55;3.08;;;;;;;12.69;100.00;102588.63;5349049;26;20238;-58
2024/04/13 03:02:04;;;;;;;10.82;3.13;;;;;;;12.78;100.00;102581.19;5327022;26;20318;-57
2024/04/13 03:04:31;;;;;;;18.52;5.00;;;;;;;12.73;100.00;102576.88;5348533;26;20276;-57
2024/04/13 03:06:59;;;;;;;13.68;3.72;;;;;;;12.41;100.00;102587.44;5349261;26;20265;-57
2024/04/13 03:09:25;;;;;;;12.60;3.42;;;;;;;12.42;100.00;102586.53;5348889;26;20285;-57
2024/04/13 03:11:50;;;;;;;12.98;3.15;;;;;;;12.57;100.00;102579.03;5348775;26;20235;-57
2024/04/13 03:14:16;;;;;;;14.13;2.83;;;;;;;12.83;100.00;102579.31;5349151;26;20633;-57
2024/04/13 03:16:41;;;;;;;13.35;3.30;;;;;;;12.58;100.00;102586.19;5344251;26;20239;-57
2024/04/13 03:19:06;;;;;;;16.35;3.53;;;;;;;12.66;100.00;102581.50;5335218;26;20243;-57
2024/04/13 03:21:35;;;;;;;19.42;3.88;;;;;;;12.61;100.00;102586.09;5351688;26;20246;-57
2024/04/13 03:24:01;;;;;;;17.35;3.22;;;;;;;12.52;100.00;102576.44;5352117;26;20290;-58
2024/04/13 03:26:26;;;;;;;17.55;3.28;;;;;;;12.40;100.00;102576.72;5351443;26;20235;-58
2024/04/13 03:28:52;;;;;;;15.57;3.55;;;;;;;12.54;100.00;102582.69;5352026;26;20235;-58
2024/04/13 03:31:17;;;;;;;19.67;3.58;;;;;;;12.45;100.00;102578.41;5351451;26;20235;-58
2024/04/13 03:33:42;;;;;;;17.50;3.55;;;;;;;12.47;100.00;102579.25;5352014;26;20318;-57
2024/04/13 03:36:08;;;;;;;16.08;3.45;;;;;;;12.47;100.00;102575.69;5329799;26;20245;-58
2024/04/13 03:38:34;;;;;;;12.52;3.38;;;;;;;12.54;100.00;102574.63;5355006;26;20231;-57
2024/04/13 03:41:05;;;;;;;20.35;3.75;;;;;;;12.39;100.00;102573.16;5331777;26;20254;-57
2024/04/13 03:43:31;;;;;;;21.33;4.15;;;;;;;12.40;100.00;102580.28;5356783;26;20235;-57
2024/04/13 03:45:57;;;;;;;18.63;4.55;;;;;;;12.24;100.00;102582.44;5354129;26;20246;-58
2024/04/13 03:48:22;;;;;;;16.85;3.70;;;;;;;12.60;100.00;102577.16;5354115;26;20352;-58
2024/04/13 03:50:48;;;;;;;18.60;3.40;;;;;;;12.75;100.00;102566.97;5352757;26;20242;-58
2024/04/13 03:53:14;;;;;;;15.02;3.55;;;;;;;12.58;100.00;102568.22;5352326;26;20728;-58
2024/04/13 03:55:39;;;;;;;13.63;3.22;;;;;;;12.46;100.00;102561.34;5352478;26;20251;-58
2024/04/13 03:58:05;;;;;;;10.00;3.92;;;;;;;12.89;100.00;102569.31;5353947;26;20238;-58
2024/04/13 04:00:31;;;;;;;12.02;3.25;;;;;;;12.73;100.00;102566.13;5353500;26;20313;-58
2024/04/13 04:02:56;;;;;;;17.90;3.67;;;;;;;12.74;100.00;102563.38;5354272;26;20295;-57
2024/04/13 04:05:22;;;;;;;9.68;3.28;;;;;;;12.83;100.00;102565.84;5354784;26;20247;-57
2024/04/13 04:07:47;;;;;;;12.90;4.07;;;;;;;12.70;100.00;102566.19;5356081;26;20277;-57
2024/04/13 04:10:13;;;;;;;13.65;3.13;;;;;;;12.72;100.00;102567.03;5355301;26;20243;-58
2024/04/13 04:12:42;;;;;;;12.75;3.10;;;;;;;12.80;100.00;102565.03;5357376;26;20235;-57
2024/04/13 04:15:07;;;;;;;11.25;3.45;;;;;;;12.90;100.00;102571.09;5349696;26;20295;-57
2024/04/13 04:17:33;;;;;;;20.90;3.97;;;;;;;12.99;100.00;102574.41;5338786;26;20235;-57
2024/04/13 04:19:58;;;;;;;11.85;3.80;;;;;;;12.76;100.00;102568.72;5332151;26;20235;-57
2024/04/13 04:22:24;;;;;;;14.57;3.47;;;;;;;12.89;100.00;102555.84;5354039;26;20763;-57
2024/04/13 04:24:50;;;;;;;15.85;4.13;;;;;;;12.80;100.00;102565.94;5352613;26;20728;-57
2024/04/13 04:27:18;;;;;;;14.60;3.30;;;;;;;12.84;100.00;102558.66;5351946;26;20332;-58
2024/04/13 04:29:43;;;;;;;15.75;3.58;;;;;;;12.87;100.00;102558.59;5352017;26;20239;-58
2024/04/13 04:32:08;;;;;;;12.48;2.90;;;;;;;12.63;100.00;102558.28;5334837;26;20357;-57
2024/04/13 04:34:34;;;;;;;18.02;3.95;;;;;;;12.79;100.00;102556.09;5347464;26;20243;-57
2024/04/13 04:36:59;;;;;;;13.57;3.63;;;;;;;12.97;100.00;102553.84;5352798;26;20235;-57
2024/04/13 04:39:25;;;;;;;10.30;3.08;;;;;;;12.83;100.00;102555.09;5352482;26;20343;-57
2024/04/13 04:41:51;;;;;;;13.02;3.22;;;;;;;12.45;100.00;102556.00;5352708;26;20239;-58
2024/04/13 04:44:16;;;;;;;17.48;4.20;;;;;;;12.52;100.00;102562.13;5352548;26;20239;-57
2024/04/13 04:46:42;;;;;;;12.10;2.80;;;;;;;12.58;100.00;102546.72;5352330;26;20268;-58
2024/04/13 04:49:07;;;;;;;14.48;3.97;;;;;;;12.66;100.00;102555.50;5329772;26;20231;-58
2024/04/13 04:51:33;;;;;;;19.50;3.47;;;;;;;12.53;100.00;102554.03;5352322;26;20255;-58
2024/04/13 04:53:58;;;;;;;18.92;4.82;;;;;;;12.42;100.00;102548.91;5351345;26;20293;-58
2024/04/13 04:56:25;;;;;;;10.48;3.05;;;;;;;12.63;100.00;102549.31;5350678;26;20259;-57
2024/04/13 04:58:51;;;;;;;13.80;3.63;;;;;;;12.74;100.00;102558.00;5352790;26;20243;-58
2024/04/13 05:01:17;;;;;;;12.15;3.70;;;;;;;12.67;100.00;102559.94;5352549;26;20282;-58
2024/04/13 05:03:42;;;;;;;13.70;3.40;;;;;;;12.55;100.00;102551.31;5353015;26;20293;-57
2024/04/13 05:06:08;;;;;;;14.60;3.20;;;;;;;12.49;100.00;102555.88;5347023;26;20256;-57
2024/04/13 05:08:33;;;;;;;13.38;3.65;;;;;;;12.62;100.00;102548.44;5348817;26;20235;-58
2024/04/13 05:10:59;;;;;;;12.93;3.33;;;;;;;12.58;100.00;102551.22;5353004;26;20238;-57
2024/04/13 05:13:24;;;;;;;11.50;3.50;;;;;;;12.78;100.00;102545.38;5353178;26;20239;-57
2024/04/13 05:15:50;;;;;;;13.70;3.80;;;;;;;12.76;100.00;102542.72;5354694;26;20232;-57
2024/04/13 05:18:15;;;;;;;23.17;4.35;;;;;;;12.81;100.00;102539.91;5354651;26;20231;-57
2024/04/13 05:20:41;;;;;;;11.15;3.90;;;;;;;12.72;100.00;102529.38;5355104;26;20232;-57
2024/04/13 05:23:07;;;;;;;13.45;4.28;;;;;;;12.62;100.00;102534.13;5355009;26;20628;-57
2024/04/13 05:25:33;;;;;;;15.57;4.10;;;;;;;12.58;100.00;102538.66;5354075;26;20246;-57
2024/04/13 05:27:58;;;;;;;14.38;3.35;;;;;;;12.69;100.00;102541.09;5353377;26;20289;-58
2024/04/13 05:30:24;;;;;;;15.68;3.75;;;;;;;12.50;100.00;102548.72;5353521;26;20243;-58
2024/04/13 05:32:49;;;;;;;13.43;3.53;;;;;;;12.75;100.00;102540.94;5354067;26;20281;-58
2024/04/13 05:35:16;;;;;;;15.40;3.30;;;;;;;12.70;100.00;102548.25;5352509;26;20235;-57
2024/04/13 05:37:42;;;;;;;17.35;4.38;;;;;;;12.70;100.00;102537.50;5349844;26;20675;-57
2024/04/13 05:40:08;;;;;;;12.10;3.50;;;;;;;12.54;100.00;102545.06;5351365;26;20239;-57
2024/04/13 05:42:33;;;;;;;9.35;3.13;;;;;;;12.48;100.00;102548.75;5352477;26;20717;-57
2024/04/13 05:44:59;;;;;;;13.63;3.22;;;;;;;12.70;100.00;102540.19;5353890;26;20286;-57
2024/04/13 05:47:24;;;;;;;11.65;3.58;;;;;;;12.84;100.00;102543.41;5329341;26;20260;-57
2024/04/13 05:49:53;;;;;;;11.32;2.88;;;;;;;12.70;100.00;102559.00;5354421;26;20790;-58
2024/04/13 05:52:18;;;;;;;11.60;3.30;;;;;;;12.72;100.00;102532.06;5353115;26;20611;-58
2024/04/13 05:54:43;;;;;;;13.38;3.03;;;;;;;13.02;100.00;102550.13;5352958;26;20243;-57
2024/04/13 05:57:11;;;;;;;10.95;4.70;;;;;;;12.77;100.00;102555.25;5349836;26;20351;-57
2024/04/13 05:59:36;;;;;;;14.68;2.95;;;;;;;12.97;100.00;102548.47;5333851;26;20237;-58
2024/04/13 06:02:01;;;;;;;11.90;3.78;;;;;;;13.12;100.00;102545.38;5344121;26;21093;-58
2024/04/13 06:04:27;;;;;;;19.27;4.60;;;;;;;13.18;100.00;102555.09;5349982;26;20247;-58
2024/04/13 06:06:52;;;;;;;9.90;3.70;;;;;;;13.33;100.00;102540.34;5349614;26;20234;-58
2024/04/13 06:09:18;;;;;;;13.25;3.22;;;;;;;13.21;100.00;102546.94;5349594;26;20259;-57
2024/04/13 06:11:44;;;;;;;14.05;3.00;;;;;;;13.37;100.00;102545.66;5345116;26;20236;-57
2024/04/13 06:14:09;;;;;;;11.63;2.40;;;;;;;13.40;100.00;102544.69;5331869;26;20239;-57
2024/04/13 06:16:34;;;;;;;12.68;4.00;;;;;;;13.57;100.00;102555.00;5347113;26;20709;-58
2024/04/13 06:19:00;;;;;;;15.00;2.97;;;;;;;13.64;100.00;102547.59;5349706;26;20597;-58
2024/04/13 06:21:26;;;;;;;13.63;3.15;;;;;;;13.82;100.00;102548.91;5349740;26;20238;-57
2024/04/13 06:23:52;;;;;;;12.07;3.47;;;;;;;13.90;100.00;102533.38;5326259;26;20243;-57
2024/04/13 06:26:17;;;;;;;8.23;2.92;;;;;;;14.03;100.00;102539.31;5329618;26;20322;-58
2024/04/13 06:28:42;;;;;;;13.93;2.95;;;;;;;14.09;100.00;102549.88;5347468;26;20345;-58
2024/04/13 06:31:08;;;;;;;14.73;2.95;;;;;;;14.09;100.00;102550.75;5349077;26;20297;-58
2024/04/13 06:33:33;;;;;;;6.45;2.55;;;;;;;14.09;100.00;102548.06;5348918;26;20243;-58
2024/04/13 06:35:58;;;;;;;16.00;3.33;;;;;;;14.22;100.00;102540.47;5348735;26;20631;-58
2024/04/13 06:38:24;;;;;;;5.72;2.75;;;;;;;14.12;100.00;102540.81;5348600;26;20708;-57
2024/04/13 06:40:53;;;;;;;7.32;2.40;;;;;;;14.40;100.00;102532.75;5342419;26;20702;-58
2024/04/13 06:43:19;;;;;;;9.35;3.05;;;;;;;14.40;100.00;102532.75;5323641;26;20243;-58
2024/04/13 06:45:45;;;;;;;10.77;2.83;;;;;;;14.32;100.00;102521.31;5348919;26;20341;-58
2024/04/13 06:48:11;;;;;;;13.38;3.13;;;;;;;14.45;100.00;102509.22;5326986;26;20314;-58
2024/04/13 06:50:37;;;;;;;7.93;2.35;;;;;;;14.44;100.00;102523.63;5343954;26;20252;-58
2024/04/13 06:53:02;;;;;;;10.57;2.70;;;;;;;14.65;100.00;102526.59;5350596;26;20239;-58
2024/04/13 06:55:28;;;;;;;11.93;2.85;;;;;;;14.67;100.00;102519.31;5352971;26;20243;-58
2024/04/13 06:57:53;;;;;;;11.02;2.53;;;;;;;14.93;100.00;102510.34;5353448;26;20321;-57
2024/04/13 07:00:19;;;;;;;8.02;2.38;;;;;;;14.63;100.00;102519.44;5353835;26;20247;-57
2024/04/13 07:02:47;;;;;;;13.65;2.35;;;;;;;14.83;100.00;102509.78;5353267;26;20282;-58
2024/04/13 07:05:12;;;;;;;11.18;2.45;;;;;;;15.12;100.00;102507.91;5354040;26;20600;-58
2024/04/13 07:07:39;;;;;;;8.95;2.10;;;;;;;15.31;100.00;102502.72;5353547;26;20331;-58
2024/04/13 07:10:05;;;;;;;10.27;2.65;;;;;;;15.64;97.72;102497.88;5353824;26;20343;-58
2024/04/13 07:12:30;;;;;;;9.40;2.53;;;;;;;15.64;97.84;102502.41;5354387;26;20306;-58
2024/04/13 07:14:56;;;;;;;7.38;1.98;;;;;;;15.78;97.88;102510.03;5354606;26;20231;-57
2024/04/13 07:17:21;;;;;;;7.32;1.92;;;;;;;15.88;96.25;102511.44;5358504;26;20313;-57
2024/04/13 07:19:46;;;;;;;6.78;1.92;;;;;;;15.98;94.38;102511.97;5357492;26;20239;-57
2024/04/13 07:22:12;;;;;;;5.78;1.85;;;;;;;16.07;93.04;102489.09;5356801;26;20258;-57
2024/04/13 07:24:37;;;;;;;6.45;2.55;;;;;;;16.19;92.18;102491.31;5355381;26;20286;-57
2024/04/13 07:27:03;;;;;;;3.75;1.83;;;;;;;16.32;91.99;102489.84;5336701;26;20286;-57
2024/04/13 07:29:28;;;;;;;6.65;2.10;;;;;;;16.49;91.06;102488.28;5344715;26;20247;-58
2024/04/13 07:31:54;;;;;;;8.10;2.25;;;;;;;16.57;89.22;102481.63;5345158;26;20248;-58
2024/04/13 07:34:19;;;;;;;7.03;2.30;;;;;;;16.72;88.88;102485.50;5353839;26;20600;-58
2024/04/13 07:36:45;;;;;;;5.88;1.80;;;;;;;17.02;87.58;102473.44;5327179;26;20289;-58
2024/04/13 07:39:12;;;;;;;6.75;1.80;;;;;;;16.96;86.21;102482.69;5321002;26;20286;-58
2024/04/13 07:41:38;;;;;;;5.95;1.73;;;;;;;17.21;84.56;102473.50;5329852;26;20240;-58
2024/04/13 07:44:03;;;;;;;5.40;2.28;;;;;;;17.08;84.66;102481.28;5333488;26;20350;-58
2024/04/13 07:46:29;;;;;;;7.72;2.30;;;;;;;17.31;84.51;102476.69;5351390;26;20269;-59
2024/04/13 07:48:54;;;;;;;6.63;2.15;;;;;;;17.59;83.28;102479.00;5342946;26;20248;-60
2024/04/13 07:51:20;;;;;;;5.60;1.60;;;;;;;17.50;82.83;102480.28;5342216;26;20289;-57
2024/04/13 07:53:46;;;;;;;4.93;2.30;;;;;;;17.59;83.60;102474.44;5326192;26;20236;-57
2024/04/13 07:56:11;;;;;;;6.03;1.95;;;;;;;17.91;80.96;102468.50;5335191;26;20239;-57
2024/04/13 07:58:37;;;;;;;5.93;1.75;;;;;;;17.68;80.86;102474.97;5317899;26;20545;-58
2024/04/13 08:01:03;;;;;;;5.90;1.77;;;;;;;17.67;81.85;102471.38;5336463;26;20769;-58
2024/04/13 08:03:29;;;;;;;3.28;1.58;;;;;;;17.53;81.46;102463.88;5348765;26;20586;-58
2024/04/13 08:05:54;;;;;;;6.22;1.67;;;;;;;17.52;82.59;102466.66;5350289;26;20299;-57
2024/04/13 08:08:19;;;;;;;4.38;1.63;;;;;;;17.39;82.73;102464.53;5353493;26;20292;-58
2024/04/13 08:10:45;;;;;;;7.57;2.72;;;;;;;17.14;84.53;102464.78;5320082;26;20327;-57
2024/04/13 08:13:10;;;;;;;5.95;1.77;;;;;;;17.55;83.76;102453.88;5344472;26;20799;-57
2024/04/13 08:15:39;;;;;;;5.28;1.52;;;;;;;17.47;82.87;102440.69;5352541;26;20627;-58
2024/04/13 08:18:05;;;;;;;7.68;2.42;;;;;;;17.48;82.43;102452.41;5352360;26;20239;-57
2024/04/13 08:20:30;;;;;;;8.07;2.03;;;;;;;17.52;82.31;102450.41;5341140;26;20270;-59
2024/04/13 08:22:56;;;;;;;3.22;1.55;;;;;;;17.52;82.76;102453.13;5348494;26;20243;-58
2024/04/13 08:25:21;;;;;;;7.18;2.20;;;;;;;17.70;81.55;102449.53;5349173;26;20242;-58
2024/04/13 08:27:46;;;;;;;6.65;2.17;;;;;;;17.57;81.84;102442.97;5340641;26;20808;-57
2024/04/13 08:30:12;;;;;;;8.88;1.88;;;;;;;17.57;81.72;102435.72;5349434;26;20243;-58
2024/04/13 08:32:38;;;;;;;5.45;1.67;;;;;;;17.40;82.21;102436.50;5329470;26;20292;-57
2024/04/13 08:35:07;;;;;;;5.32;1.80;;;;;;;17.47;83.27;102437.97;5318818;26;20240;-57
2024/04/13 08:37:32;;;;;;;4.93;1.70;;;;;;;17.86;83.27;102427.16;5341220;26;20728;-58
2024/04/13 08:39:58;;;;;;;3.78;1.70;;;;;;;18.25;81.66;102428.88;5333149;26;20310;-59
2024/04/13 08:42:31;;;;;;;8.63;1.90;;;;;;;18.48;78.93;102423.19;5340547;26;20280;-58
2024/04/13 08:44:57;;;;;;;5.50;1.60;;;;;;;18.44;78.17;102423.41;5348651;26;20293;-60
2024/04/13 08:47:24;;;;;;;8.43;1.63;;;;;;;18.26;78.63;102417.94;5337733;26;20776;-59
2024/04/13 08:49:50;;;;;;;7.05;1.95;;;;;;;18.35;78.76;102428.31;5345963;26;20238;-58
2024/04/13 08:52:16;;;;;;;5.15;1.75;;;;;;;18.39;77.55;102415.47;5341795;26;20236;-57
2024/04/13 08:54:41;;;;;;;5.85;1.80;;;;;;;18.66;77.29;102412.31;5326998;26;20725;-59
2024/04/13 08:57:07;;;;;;;4.70;1.80;;;;;;;18.82;76.14;102417.81;5325616;26;20244;-58
2024/04/13 08:59:33;;;;;;;8.93;1.75;;;;;;;18.70;76.23;102411.22;5327269;26;20283;-58
2024/04/13 09:02:01;;;;;;;4.80;1.83;;;;;;;18.59;75.10;102409.06;5340272;26;20350;-58
2024/04/13 09:04:27;;;;;;;3.22;1.27;;;;;;;18.62;76.05;102389.00;5334411;26;20243;-59
2024/04/13 09:06:52;;;;;;;3.88;1.48;;;;;;;18.85;75.57;102410.44;5346823;26;20409;-58
2024/04/13 09:09:18;;;;;;;6.25;1.92;;;;;;;19.10;74.41;102400.09;5332860;26;20239;-58
2024/04/13 09:11:44;;;;;;;7.32;1.80;;;;;;;19.22;74.22;102399.44;5351478;26;20250;-58
2024/04/13 09:14:11;;;;;;;4.07;1.70;;;;;;;19.36;75.08;102404.09;5350371;26;20239;-59
2024/04/13 09:16:37;;;;;;;6.28;1.73;;;;;;;19.44;73.42;102407.25;5350804;26;20235;-59
2024/04/13 09:19:02;;;;;;;8.57;2.00;;;;;;;19.66;74.23;102398.75;5351868;26;20296;-59
2024/04/13 09:21:30;;;;;;;5.25;2.15;;;;;;;19.43;73.53;102394.63;5350001;26;20235;-59
2024/04/13 09:23:55;;;;;;;4.65;1.90;;;;;;;19.21;74.50;102395.81;5351744;26;20733;-59
2024/04/13 09:26:22;;;;;;;2.50;1.50;;;;;;;19.29;74.33;102403.53;5350561;26;20667;-58
2024/04/13 09:28:48;;;;;;;4.40;1.80;;;;;;;19.08;75.42;102400.16;5349495;26;20278;-60
2024/04/13 09:31:14;;;;;;;7.97;2.28;;;;;;;18.88;75.29;102412.09;5350673;26;20247;-58
2024/04/13 09:33:46;;;;;;;5.03;1.92;;;;;;;19.05;74.90;102403.03;5350554;26;20698;-58
2024/04/13 09:36:25;;;;;;;7.13;2.47;;;;;;;18.62;76.12;102373.59;5350759;26;20285;-58
2024/04/13 09:38:54;;;;;;;7.68;2.80;;;;;;;18.82;75.65;102401.50;5349086;26;20755;-58
2024/04/13 09:41:20;;;;;;;5.03;1.75;;;;;;;18.99;75.36;102390.69;5351999;26;20247;-58
2024/04/13 09:43:50;;;;;;;4.13;2.00;;;;;;;18.91;75.41;102383.91;5350769;26;20725;-58
2024/04/13 09:46:17;;;;;;;5.03;1.75;;;;;;;18.66;75.95;102396.03;5348765;26;20675;-58
2024/04/13 09:48:42;;;;;;;6.55;2.33;;;;;;;18.70;75.36;102384.06;5348218;26;20717;-60
2024/04/13 09:51:07;;;;;;;5.10;1.90;;;;;;;18.97;76.50;102387.16;5348756;26;20243;-58
2024/04/13 09:53:33;;;;;;;7.88;2.30;;;;;;;19.00;75.74;102380.69;5349989;26;20285;-58
2024/04/13 09:55:58;;;;;;;9.77;3.35;;;;;;;18.83;76.34;102390.56;5326711;26;20293;-59
2024/04/13 09:58:24;;;;;;;6.00;2.58;;;;;;;18.91;75.29;102379.34;5349895;26;20329;-58
2024/04/13 10:00:50;;;;;;;9.02;2.72;;;;;;;18.82;75.91;102379.78;5339385;26;20232;-58
2024/04/13 10:03:16;;;;;;;5.43;3.13;;;;;;;18.69;75.82;102379.59;5336277;26;20325;-59
2024/04/13 10:05:46;;;;;;;4.75;2.25;;;;;;;18.95;76.77;102375.50;5349012;26;20352;-59
2024/04/13 10:08:12;;;;;;;6.88;2.53;;;;;;;19.04;75.04;102371.41;5349575;26;20784;-57
2024/04/13 10:10:40;;;;;;;6.57;2.83;;;;;;;19.28;75.35;102365.59;5350290;26;20286;-59
2024/04/13 10:13:06;;;;;;;7.60;2.55;;;;;;;19.23;74.32;102353.16;5348036;26;20294;-59
2024/04/13 10:15:32;;;;;;;6.22;2.67;;;;;;;19.25;73.79;102359.38;5350013;26;20592;-59
2024/04/13 10:17:59;;;;;;;6.32;2.70;;;;;;;19.31;74.21;102350.00;5350235;26;20246;-58
2024/04/13 10:20:26;;;;;;;5.25;2.50;;;;;;;19.43;73.91;102351.13;5348235;26;20717;-58
2024/04/13 10:22:56;;;;;;;4.90;2.20;;;;;;;19.55;73.32;102355.88;5350175;26;20423;-59
2024/04/13 10:25:29;;;;;;;5.25;2.60;;;;;;;19.24;74.64;102321.41;5337119;26;20235;-59
2024/04/13 10:28:07;;;;;;;5.57;2.50;;;;;;;19.66;73.10;102351.69;5350339;26;20397;-59
2024/04/13 10:30:47;;;;;;;7.65;3.10;;;;;;;19.83;72.30;102353.44;5349967;26;20289;-59
2024/04/13 10:33:32;;;;;;;10.05;3.17;;;;;;;19.90;71.22;102342.13;5349072;26;20356;-58
2024/04/13 10:36:05;;;;;;;6.97;3.40;;;;;;;19.47;72.01;102317.41;5325324;26;20244;-58
2024/04/13 10:38:33;;;;;;;6.28;2.83;;;;;;;19.61;72.44;102328.34;5333047;26;20255;-59
2024/04/13 10:41:01;;;;;;;8.02;3.03;;;;;;;19.81;72.61;102331.78;5350205;26;20243;-58
2024/04/13 10:43:27;;;;;;;4.85;2.55;;;;;;;20.19;71.37;102327.78;5348802;26;20779;-59
2024/04/13 10:46:03;;;;;;;4.13;2.25;;;;;;;20.41;71.29;102327.34;5351744;26;20239;-58
2024/04/13 10:48:30;;;;;;;4.30;2.17;;;;;;;20.62;70.69;102320.56;5351683;26;20242;-58
2024/04/13 10:50:56;;;;;;;5.15;2.65;;;;;;;20.76;69.57;102321.59;5350197;26;20235;-59
2024/04/13 10:53:26;;;;;;;6.10;2.30;;;;;;;20.99;68.77;102323.72;5341104;26;20285;-58
2024/04/13 10:55:56;;;;;;;6.13;2.72;;;;;;;20.81;68.86;102317.63;5348094;26;20570;-59
2024/04/13 10:58:30;;;;;;;5.65;2.10;;;;;;;20.89;67.77;102318.97;5340839;26;20266;-58
2024/04/13 11:00:57;;;;;;;4.28;2.20;;;;;;;20.51;68.21;102316.78;5346857;26;20277;-58
2024/04/13 11:03:24;;;;;;;4.00;1.90;;;;;;;20.65;68.57;102301.34;5349871;26;20255;-58
2024/04/13 11:05:49;;;;;;;3.60;2.00;;;;;;;20.59;68.22;102289.94;5346945;26;20235;-57
2024/04/13 11:08:15;;;;;;;6.43;2.30;;;;;;;20.57;68.61;102290.03;5330677;26;20287;-59
2024/04/13 11:10:42;;;;;;;4.82;2.13;;;;;;;20.50;68.40;102283.22;5347588;26;20281;-57